Weather at Agatti Airport

Public forecast

Using degrees Celsius for public forecast. Weather courtesy of forecast.io.

Current aviation weather report (METAR) for Agatti Airport

Report is more than 6 hours old.

2022/11/13 07:30 (retrieved 2 years ago)

VOAT 130730Z 31005KT 5000 DZ SCT012 OVC080 26/25 Q1009 NOSIG

Closest aviation forecast (TAF) to Agatti Airport

Forecast is more than 12 hours old.

Closest forecast is Kannur International Airport, 209.0 nm (387.1 km) ENE.

2023/02/22 18:00 (retrieved 1 year ago)

TAF VOKN 221700Z 2218/2324 10010KT 3000 BR FEW012 TEMPO 2222/2302 2000 BR FEW012 BECMG 2303/2304 22005KT 4000 HZ FEW012 TEMPO 2310/2312 20005KT 6000 FEW012 BECMG 2314/2315 25005KT 3000 BR FEW012 TEMPO 2322/2324 10010KT 2000 BR FEW012